11:30
Airports
Links
Donate
Help keep this website running!
PayPal
Bitcoin
METAR
KMPV 111051Z AUTO VRB04KT 10SM BKN026 OVC090 M02/M07 A2984 RMK AO2 SLP123 T10221067
Current Weather Conditions at KMPV
MVFR 10:51:00 11-12-17
Automated station, no observer
Altimeter:29.84 hg
Temp:-2.2°c 28°f
Dew point:-6.7°c 21°f
Wind:4 knots, 4.6 mph, 2 m/s,
Variable direction
Visibility:10.0 statute miles
9000(OVC) Overcast
2600(BKN) Broken
Past METAR reports
MVFR 10:39:00 11-12-17
Automated station, no observer
Altimeter:29.84 hg
Temp:-2.2°c 28°f
Dew point:-6.7°c 21°f
Wind:3 knots, 3.5 mph, 2 m/s,
Variable direction
Visibility:10.0 statute miles
8500(OVC) Overcast
3200(BKN) Broken
2600(BKN) Broken
KMPV 111039Z AUTO VRB03KT 10SM BKN026 BKN032 OVC085 M02/M07 A2984 RMK AO2 T10221067
VFR 09:51:00 11-12-17
Automated station, no observer
Altimeter:29.83 hg
Temp:-2.2°c 28°f
Dew point:-6.7°c 21°f
Wind:9 knots, 10.4 mph, 5 m/s, from 210°
Visibility:10.0 statute miles
8000(OVC) Overcast
3100(FEW) A few
KMPV 110951Z AUTO 21009G21KT 10SM FEW031 OVC080 M02/M07 A2983 RMK AO2 PK WND 20027/0937 SLP119 T10221067
VFR 08:51:00 11-12-17
Automated station, no observer
Altimeter:29.83 hg
Temp:-2.8°c 28°f
Dew point:-6.1°c 21°f
Wind:6 knots, 6.9 mph, 3 m/s,
Variable direction
Visibility:10.0 statute miles
8500(OVC) Overcast
4400(SCT) Scattered
3500(FEW) A few
KMPV 110851Z AUTO VRB06G15KT 10SM FEW035 SCT044 OVC085 M03/M06 A2983 RMK AO2 SLP118 T10281061 53001
VFR 07:51:00 11-12-17
Automated station, no observer
Altimeter:29.83 hg
Temp:-2.2°c 28°f
Dew point:-6.7°c 21°f
Wind:5 knots, 5.8 mph, 3 m/s,
Variable direction
Visibility:10.0 statute miles
8500(OVC) Overcast
KMPV 110751Z AUTO VRB05KT 10SM OVC085 M02/M07 A2983 RMK AO2 SLP116 T10221067
VFR 06:51:00 11-12-17
Automated station, no observer
Altimeter:29.83 hg
Temp:-2.2°c 28°f
Dew point:-6.7°c 21°f
Wind:7 knots, 8.1 mph, 4 m/s, from 240°
Visibility:10.0 statute miles
8500(OVC) Overcast
7000(FEW) A few
KMPV 110651Z AUTO 24007G15KT 10SM FEW070 OVC085 M02/M07 A2983 RMK AO2 SLP117 T10221067
VFR 05:51:00 11-12-17
Automated station, no observer
Altimeter:29.83 hg
Temp:-2.2°c 28°f
Dew point:-6.7°c 21°f
Wind:6 knots, 6.9 mph, 3 m/s, from 230°
Visibility:10.0 statute miles
9000(OVC) Overcast
KMPV 110551Z AUTO 23006G17KT 10SM OVC090 M02/M07 A2983 RMK AO2 SLP117 T10221067 11022 21033 53004
TAF
KMPV 110543Z 1106/1206 22007KT P6SM OVC060 FM110900 VRB03KT P6SM VCSH OVC045 TEMPO 1109/1111 4SM -SHSN OVC030 FM111300 30006KT P6SM OVC025 FM111700 31004KT P6SM SCT030 FM120300 VRB03KT P6SM BKN110
Forecast at KMPV
06:00 11-12-17 to 09:00 11-12-17
Wind:7 Knots from 220°
Visibility:6.21 statute miles
6000OVC Overcast
TEMPO 09:00 11-12-17 to 11:00 11-12-17
-SHSN
Visibility:4.0 statute miles
3000OVC Overcast
FM 09:00 11-12-17 to 13:00 11-12-17
VCSH
Wind:3 Knots from 360°
Visibility:6.21 statute miles
4500OVC Overcast
FM 13:00 11-12-17 to 17:00 11-12-17
Wind:6 Knots from 300°
Visibility:6.21 statute miles
2500OVC Overcast
FM 17:00 11-12-17 to 03:00 12-12-17
Wind:4 Knots from 310°
Visibility:6.21 statute miles
3000SCT Scattered
FM 03:00 12-12-17 to 06:00 12-12-17
Wind:3 Knots from 360°
Visibility:6.21 statute miles
11000BKN Broken